createdAt,value
2018-10-03T00:00:58.631Z,15.5
2018-10-03T00:01:59.131Z,3.0
2018-10-03T00:02:58.766Z,3.0
2018-10-03T00:03:58.833Z,3.0
2018-10-03T00:05:09.222Z,1.9
2018-10-03T00:05:59.014Z,1.9
2018-10-03T00:06:59.058Z,1.9
2018-10-03T00:07:58.842Z,1.9
2018-10-03T00:08:58.856Z,1.9
2018-10-03T00:09:58.667Z,1.3
2018-10-03T00:10:58.812Z,1.3
2018-10-03T00:11:58.637Z,1.6
2018-10-03T00:12:58.680Z,1.6
2018-10-03T00:13:58.922Z,1.6
2018-10-03T00:14:59.046Z,2.2
2018-10-03T00:15:59.068Z,2.2
2018-10-03T00:16:59.161Z,0.0
2018-10-03T00:17:59.075Z,0.0
2018-10-03T00:18:59.141Z,0.0
2018-10-03T00:19:58.864Z,2.7
2018-10-03T00:20:59.179Z,2.7
2018-10-03T00:21:58.850Z,2.7
2018-10-03T00:22:59.105Z,1.3
2018-10-03T00:28:18.090Z,1.3
2018-10-03T00:28:27.295Z,1.3
2018-10-03T00:29:27.321Z,2.5
2018-10-03T00:30:26.848Z,2.5
2018-10-03T00:31:27.356Z,2.5
2018-10-03T00:32:27.136Z,2.2
2018-10-03T00:33:26.995Z,2.2
2018-10-03T00:34:27.266Z,2.2
2018-10-03T00:35:26.819Z,3.6
2018-10-03T00:37:40.151Z,2.2
2018-10-03T00:38:41.054Z,2.2
2018-10-03T00:39:40.128Z,2.2
2018-10-03T00:40:40.157Z,1.3
2018-10-03T00:41:40.624Z,1.3
2018-10-03T00:42:40.181Z,1.6
2018-10-03T00:43:40.141Z,1.6
2018-10-03T00:44:40.223Z,1.6
2018-10-03T00:45:40.720Z,0.5
2018-10-03T00:46:40.644Z,0.5
2018-10-03T00:47:41.665Z,0.5
2018-10-03T00:48:40.677Z,0.5
2018-10-03T00:49:40.635Z,0.5
2018-10-03T00:50:40.660Z,0.8
2018-10-03T00:51:40.701Z,0.8
2018-10-03T00:52:41.264Z,0.0
2018-10-03T00:53:40.344Z,0.0
2018-10-03T00:54:40.659Z,0.0
2018-10-03T00:55:40.646Z,0.0
2018-10-03T00:56:40.377Z,0.0
2018-10-03T00:58:32.855Z,1.1
2018-10-03T00:58:40.803Z,1.1
2018-10-03T00:59:40.980Z,1.1
2018-10-03T01:00:41.061Z,0.5
2018-10-03T01:01:40.585Z,0.5
2018-10-03T01:02:40.807Z,0.5
2018-10-03T01:03:40.968Z,1.1
2018-10-03T01:04:40.770Z,1.1
2018-10-03T01:05:41.891Z,0.8
2018-10-03T01:06:41.034Z,0.8
2018-10-03T01:07:41.122Z,0.8
2018-10-03T01:08:40.735Z,0.0
2018-10-03T01:09:40.608Z,0.0
2018-10-03T01:10:40.718Z,0.5
2018-10-03T01:11:41.048Z,0.5
2018-10-03T01:12:40.760Z,0.5
2018-10-03T01:13:41.074Z,1.6
2018-10-03T01:14:40.601Z,1.6
2018-10-03T01:15:41.028Z,1.6
2018-10-03T01:16:40.801Z,1.6
2018-10-03T01:17:41.155Z,1.6
2018-10-03T01:18:40.638Z,2.5
2018-10-03T01:19:40.786Z,2.5
2018-10-03T01:20:40.675Z,0.0
2018-10-03T01:21:41.034Z,0.0
2018-10-03T01:22:40.564Z,0.0
2018-10-03T01:23:40.671Z,0.2
2018-10-03T01:24:41.211Z,0.2
2018-10-03T01:25:41.144Z,1.9
2018-10-03T01:26:41.162Z,1.9
2018-10-03T01:27:41.084Z,1.9
2018-10-03T01:28:40.621Z,1.9
2018-10-03T01:29:40.802Z,1.9
2018-10-03T01:30:41.192Z,1.1
2018-10-03T01:31:40.797Z,1.1
2018-10-03T01:32:41.100Z,1.1
2018-10-03T01:33:41.064Z,0.0
2018-10-03T01:34:40.685Z,0.0
2018-10-03T01:35:41.054Z,0.0
2018-10-03T01:36:41.046Z,1.1
2018-10-03T01:37:40.805Z,1.1
2018-10-03T01:38:41.131Z,0.5
2018-10-03T01:39:40.709Z,0.5
2018-10-03T01:40:40.586Z,0.5
2018-10-03T01:41:40.591Z,1.3
2018-10-03T01:42:40.823Z,1.3
2018-10-03T01:43:40.656Z,0.0
2018-10-03T01:44:40.611Z,0.0
2018-10-03T01:58:43.814Z,0.0
2018-10-03T01:59:43.805Z,1.3
2018-10-03T02:00:43.831Z,1.3
2018-10-03T02:01:43.785Z,0.0
2018-10-03T02:02:44.191Z,0.0
2018-10-03T02:03:44.067Z,0.0
2018-10-03T02:04:44.256Z,0.0
2018-10-03T02:05:44.248Z,0.0
2018-10-03T02:06:43.783Z,1.1
2018-10-03T02:07:44.214Z,1.1
2018-10-03T02:08:43.822Z,1.1
2018-10-03T02:10:44.344Z,1.1
2018-10-03T02:11:44.359Z,0.0
2018-10-03T02:12:43.911Z,0.0
2018-10-03T02:13:44.521Z,0.0
2018-10-03T02:14:44.394Z,0.8
2018-10-03T02:15:44.000Z,0.8
2018-10-03T02:16:44.102Z,1.9
2018-10-03T02:17:46.114Z,1.9
2018-10-03T02:18:44.434Z,1.9
2018-10-03T02:19:44.329Z,0.2
2018-10-03T02:20:44.932Z,0.2
2018-10-03T02:21:45.335Z,0.5
2018-10-03T02:22:44.251Z,0.5
2018-10-03T02:23:44.340Z,0.5
2018-10-03T02:24:45.604Z,1.1
2018-10-03T02:25:45.248Z,1.1
2018-10-03T02:26:43.823Z,0.5
2018-10-03T02:42:01.306Z,1.1
2018-10-03T02:43:01.764Z,1.1
2018-10-03T02:44:01.751Z,1.1
2018-10-03T02:45:06.776Z,0.5
2018-10-03T02:46:01.296Z,0.5
2018-10-03T02:47:01.642Z,0.2
2018-10-03T02:48:02.468Z,0.2
2018-10-03T02:49:01.644Z,0.2
2018-10-03T02:50:02.190Z,0.2
2018-10-03T02:51:01.513Z,0.2
2018-10-03T02:52:01.465Z,0.2
2018-10-03T02:53:01.818Z,0.2
2018-10-03T02:54:01.422Z,0.2
2018-10-03T02:55:01.227Z,0.8
2018-10-03T02:56:01.833Z,0.8
2018-10-03T02:57:01.722Z,0.8
2018-10-03T02:58:01.546Z,0.5
2018-10-03T02:59:01.791Z,0.5
2018-10-03T03:00:01.687Z,0.2
2018-10-03T03:01:01.772Z,0.2
2018-10-03T03:02:01.759Z,0.2
2018-10-03T03:03:01.696Z,0.5
2018-10-03T03:04:01.495Z,0.5
2018-10-03T03:05:01.701Z,0.0
2018-10-03T03:06:01.445Z,0.0
2018-10-03T03:07:01.276Z,0.0
2018-10-03T03:08:02.031Z,0.2
2018-10-03T03:09:01.745Z,0.2
2018-10-03T03:10:04.051Z,0.0
2018-10-03T03:11:01.825Z,0.0
2018-10-03T03:12:02.132Z,0.0
2018-10-03T03:13:01.321Z,0.5
2018-10-03T03:14:01.700Z,0.5
2018-10-03T03:15:01.305Z,0.0
2018-10-03T03:16:01.920Z,0.0
2018-10-03T03:17:01.715Z,0.0
2018-10-03T03:18:01.758Z,0.5
2018-10-03T03:19:03.122Z,0.5
2018-10-03T03:20:03.107Z,0.5
2018-10-03T03:21:01.735Z,0.5
2018-10-03T03:22:01.741Z,0.5
2018-10-03T03:23:01.744Z,1.1
2018-10-03T03:24:01.698Z,1.1
2018-10-03T03:25:01.315Z,1.1
2018-10-03T03:26:01.850Z,0.2
2018-10-03T03:27:01.695Z,0.2
2018-10-03T03:28:01.738Z,1.1
2018-10-03T03:29:01.823Z,1.1
2018-10-03T03:30:02.309Z,1.1
2018-10-03T03:31:01.753Z,1.1
2018-10-03T03:32:01.422Z,1.1
2018-10-03T03:33:01.367Z,0.0
2018-10-03T03:34:01.768Z,0.0
2018-10-03T03:35:01.870Z,0.0
2018-10-03T03:36:01.538Z,0.0
2018-10-03T03:37:01.644Z,0.0
2018-10-03T03:38:01.299Z,0.0
2018-10-03T03:39:01.721Z,0.0
2018-10-03T03:40:01.363Z,0.0
2018-10-03T03:41:03.573Z,0.0
2018-10-03T03:42:01.507Z,0.0
2018-10-03T03:43:01.878Z,0.0
2018-10-03T03:44:01.319Z,0.0
2018-10-03T03:45:01.373Z,0.0
2018-10-03T03:46:06.698Z,0.2
2018-10-03T03:47:01.605Z,0.2
2018-10-03T03:48:52.249Z,0.0
2018-10-03T03:49:02.956Z,0.0
2018-10-03T03:50:04.494Z,0.0
2018-10-03T03:51:03.506Z,0.0
2018-10-03T03:52:08.362Z,0.0
2018-10-03T03:53:02.572Z,0.0
2018-10-03T03:54:01.927Z,0.0
2018-10-03T03:55:02.943Z,0.0
2018-10-03T03:56:02.526Z,0.2
2018-10-03T03:57:01.673Z,0.2
2018-10-03T03:58:01.787Z,0.2
2018-10-03T04:00:14.961Z,0.0
2018-10-03T04:01:13.876Z,1.6
2018-10-03T04:02:13.840Z,1.6
2018-10-03T04:03:14.228Z,0.0
2018-10-03T04:04:14.357Z,0.0
2018-10-03T04:05:14.289Z,0.0
2018-10-03T04:06:14.334Z,0.2
2018-10-03T04:07:14.018Z,0.2
2018-10-03T04:08:14.297Z,0.2
2018-10-03T04:09:14.390Z,0.8
2018-10-03T04:15:10.149Z,0.8
2018-10-03T04:15:18.070Z,0.8
2018-10-03T04:16:18.391Z,3.0
2018-10-03T04:17:18.374Z,3.0
2018-10-03T04:18:18.299Z,3.0
2018-10-03T04:19:18.126Z,1.1
2018-10-03T04:20:18.409Z,1.1
2018-10-03T04:21:18.418Z,0.2
2018-10-03T04:22:18.291Z,0.2
2018-10-03T04:23:17.931Z,0.2
2018-10-03T04:24:18.272Z,0.5
2018-10-03T04:25:18.416Z,0.5
2018-10-03T04:26:18.281Z,0.0
2018-10-03T04:27:18.284Z,0.0
2018-10-03T04:28:18.066Z,0.0
2018-10-03T04:29:18.321Z,0.8
2018-10-03T04:30:17.910Z,0.8
2018-10-03T04:31:18.920Z,0.5
2018-10-03T04:35:36.982Z,0.5
2018-10-03T04:35:51.023Z,0.5
2018-10-03T04:36:51.313Z,2.2
2018-10-03T04:37:50.898Z,2.2
2018-10-03T04:38:50.907Z,0.0
2018-10-03T04:39:50.822Z,0.0
2018-10-03T04:40:51.129Z,0.0
2018-10-03T04:41:51.393Z,0.0
2018-10-03T04:42:51.542Z,0.0
2018-10-03T04:44:07.783Z,0.0
2018-10-03T04:44:51.147Z,0.0
2018-10-03T04:45:51.312Z,0.0
2018-10-03T04:46:51.348Z,1.3
2018-10-03T04:47:51.403Z,1.3
2018-10-03T04:48:50.963Z,1.3
2018-10-03T04:49:54.243Z,0.0
2018-10-03T04:50:53.303Z,0.0
2018-10-03T04:51:52.749Z,0.0
2018-10-03T04:52:51.045Z,0.0
2018-10-03T04:53:51.106Z,0.0
2018-10-03T04:54:54.302Z,3.0
2018-10-03T04:55:52.064Z,3.0
2018-10-03T04:56:51.977Z,1.6
2018-10-03T04:57:51.703Z,1.6
2018-10-03T04:58:52.547Z,1.6
2018-10-03T04:59:53.432Z,0.0
2018-10-03T05:00:53.774Z,0.0
2018-10-03T05:01:54.621Z,1.1
2018-10-03T05:02:53.528Z,1.1
2018-10-03T05:03:52.120Z,1.1
2018-10-03T05:05:54.815Z,1.1
2018-10-03T05:07:52.603Z,0.5
2018-10-03T05:08:52.095Z,0.5
2018-10-03T05:09:51.891Z,0.0
2018-10-03T05:10:51.342Z,0.0
2018-10-03T05:11:50.920Z,2.7
2018-10-03T05:12:52.397Z,2.7
2018-10-03T05:13:51.452Z,2.7
2018-10-03T05:14:52.588Z,2.5
2018-10-03T05:15:51.432Z,2.5
2018-10-03T05:16:52.806Z,2.5
2018-10-03T05:17:51.955Z,0.2
2018-10-03T05:19:51.354Z,1.3
2018-10-03T05:20:52.108Z,1.3
2018-10-03T05:21:52.499Z,1.3
2018-10-03T05:22:53.454Z,0.0
2018-10-03T05:23:51.418Z,0.0
2018-10-03T05:24:53.412Z,0.8
2018-10-03T05:25:51.003Z,0.8
2018-10-03T05:26:52.064Z,0.8
2018-10-03T05:27:51.952Z,3.8
2018-10-03T05:28:52.176Z,3.8
2018-10-03T05:29:53.266Z,3.6
2018-10-03T05:30:53.347Z,3.6
2018-10-03T05:31:51.083Z,3.6
2018-10-03T05:32:52.010Z,3.6
2018-10-03T05:33:53.321Z,3.6
2018-10-03T05:35:20.212Z,1.9
2018-10-03T05:35:53.372Z,1.9
2018-10-03T05:36:53.940Z,1.9
2018-10-03T05:37:51.000Z,1.3
2018-10-03T05:38:51.388Z,1.3
2018-10-03T05:39:51.193Z,17.5
2018-10-03T05:40:52.256Z,17.5
2018-10-03T05:41:51.816Z,17.5
2018-10-03T05:42:51.634Z,3.3
2018-10-03T05:43:51.556Z,3.3
2018-10-03T05:47:04.689Z,3.0
2018-10-03T05:48:07.811Z,1.3
2018-10-03T05:49:04.659Z,1.3
2018-10-03T05:50:05.340Z,3.3
2018-10-03T05:51:05.033Z,3.3
2018-10-03T05:52:05.220Z,3.3
2018-10-03T05:53:04.397Z,4.4
2018-10-03T05:54:04.465Z,4.4
2018-10-03T05:55:06.653Z,0.8
2018-10-03T05:56:06.631Z,0.8
2018-10-03T05:57:17.441Z,0.8
2018-10-03T05:58:04.922Z,3.0
2018-10-03T06:00:04.281Z,3.0
2018-10-03T06:01:05.054Z,10.8
2018-10-03T06:03:06.131Z,3.3
2018-10-03T06:04:04.732Z,3.3
2018-10-03T06:06:04.783Z,2.7
2018-10-03T06:08:04.762Z,3.8
2018-10-03T06:09:05.336Z,3.8
2018-10-03T06:10:05.322Z,3.8
2018-10-03T06:11:06.378Z,5.0
2018-10-03T06:12:04.713Z,5.0
2018-10-03T06:13:05.406Z,5.0
2018-10-03T06:14:05.814Z,5.0
2018-10-03T06:15:04.267Z,5.0
2018-10-03T06:16:04.287Z,3.8
2018-10-03T06:17:06.232Z,3.8
2018-10-03T06:18:13.410Z,2.2
2018-10-03T06:19:05.400Z,2.2
2018-10-03T06:20:15.484Z,2.2
2018-10-03T06:21:08.192Z,0.8
2018-10-03T06:22:08.505Z,0.8
2018-10-03T06:23:27.775Z,3.3
2018-10-03T06:26:04.915Z,1.3
2018-10-03T06:27:13.844Z,1.3
2018-10-03T06:28:30.109Z,2.7
2018-10-03T06:29:07.072Z,2.7
2018-10-03T06:30:04.818Z,2.7
2018-10-03T06:31:06.218Z,2.7
2018-10-03T06:32:04.325Z,2.7
2018-10-03T06:33:12.057Z,2.7
2018-10-03T06:34:09.256Z,2.5
2018-10-03T06:35:04.741Z,2.5
2018-10-03T06:36:05.759Z,11.1
2018-10-03T06:37:22.227Z,11.1
2018-10-03T06:39:05.188Z,3.0
2018-10-03T06:40:05.488Z,3.0
2018-10-03T06:41:04.529Z,1.3
2018-10-03T06:42:06.122Z,1.3
2018-10-03T06:43:05.092Z,1.3
2018-10-03T06:44:10.702Z,1.6
2018-10-03T06:46:05.161Z,1.3
2018-10-03T06:48:45.696Z,1.3
2018-10-03T06:49:00.463Z,1.3
2018-10-03T06:50:00.932Z,0.8
2018-10-03T06:51:00.316Z,1.3
2018-10-03T06:53:03.309Z,1.3
2018-10-03T06:54:40.024Z,1.3
2018-10-03T06:55:15.174Z,1.3
2018-10-03T06:56:04.747Z,1.3
2018-10-03T06:57:05.545Z,2.7
2018-10-03T06:59:05.564Z,1.6
2018-10-03T07:00:12.492Z,1.6
2018-10-03T07:01:02.557Z,1.6
2018-10-03T07:02:03.336Z,3.6
2018-10-03T07:03:06.228Z,3.6
2018-10-03T07:04:11.141Z,2.5
2018-10-03T07:05:01.542Z,2.5
2018-10-03T07:06:01.114Z,2.5
2018-10-03T07:07:01.015Z,0.8
2018-10-03T07:08:24.695Z,0.8
2018-10-03T07:09:09.296Z,0.8
2018-10-03T07:10:35.105Z,0.8
2018-10-03T07:11:22.290Z,0.8
2018-10-03T07:12:27.711Z,3.0
2018-10-03T07:13:14.364Z,3.0
2018-10-03T07:14:02.622Z,3.8
2018-10-03T07:15:01.016Z,3.8
2018-10-03T07:16:02.749Z,3.8
2018-10-03T07:17:02.311Z,1.6
2018-10-03T07:18:00.268Z,1.6
2018-10-03T07:18:59.963Z,1.9
2018-10-03T07:20:03.424Z,1.9
2018-10-03T07:21:03.115Z,1.9
2018-10-03T07:22:04.075Z,0.8
2018-10-03T07:23:01.508Z,0.8
2018-10-03T07:24:03.799Z,0.8
2018-10-03T07:24:59.939Z,0.8
2018-10-03T07:26:00.636Z,0.8
2018-10-03T07:27:02.773Z,0.8
2018-10-03T07:28:00.075Z,0.8
2018-10-03T07:29:00.920Z,0.8
2018-10-03T07:30:00.982Z,2.7
2018-10-03T07:30:59.644Z,2.7
2018-10-03T07:33:00.388Z,1.6
2018-10-03T07:34:00.779Z,1.6
2018-10-03T07:35:00.032Z,1.6
2018-10-03T07:36:00.810Z,1.6
2018-10-03T07:37:00.140Z,5.0
2018-10-03T07:38:00.735Z,5.0
2018-10-03T07:38:59.660Z,5.0
2018-10-03T07:40:01.890Z,3.6
2018-10-03T07:42:02.709Z,3.8
2018-10-03T07:43:00.149Z,3.8
2018-10-03T07:44:00.702Z,3.8
2018-10-03T07:45:01.490Z,3.8
2018-10-03T07:46:02.120Z,3.8
2018-10-03T07:46:59.705Z,2.5
2018-10-03T07:49:00.149Z,2.5
2018-10-03T07:50:00.989Z,2.7
2018-10-03T07:51:01.243Z,2.7
2018-10-03T07:52:00.180Z,0.8
2018-10-03T07:53:01.402Z,0.8
2018-10-03T07:54:01.767Z,0.8
2018-10-03T07:55:05.577Z,0.2
2018-10-03T07:57:01.175Z,0.2
2018-10-03T07:58:02.564Z,2.2
2018-10-03T07:59:02.774Z,2.2
2018-10-03T08:01:04.006Z,1.6
2018-10-03T08:02:00.322Z,1.6
2018-10-03T08:03:01.989Z,1.3
2018-10-03T08:04:01.998Z,1.3
2018-10-03T08:05:01.051Z,1.3
2018-10-03T08:06:03.443Z,1.3
2018-10-03T08:07:00.126Z,1.3
2018-10-03T08:08:02.440Z,2.2
2018-10-03T08:09:03.522Z,2.2
2018-10-03T08:10:01.650Z,1.9
2018-10-03T08:12:14.369Z,1.9
2018-10-03T08:15:05.598Z,4.7
2018-10-03T08:15:22.071Z,4.7
2018-10-03T08:16:20.453Z,4.7
2018-10-03T08:18:20.616Z,7.2
2018-10-03T08:19:20.405Z,7.2
2018-10-03T08:20:21.534Z,5.5
2018-10-03T08:21:28.883Z,5.5
2018-10-03T08:22:24.523Z,5.5
2018-10-03T08:24:33.210Z,9.4
2018-10-03T08:25:33.089Z,3.3
2018-10-03T08:26:32.933Z,3.3
2018-10-03T08:27:32.813Z,2.5
2018-10-03T08:28:33.201Z,2.5
2018-10-03T08:29:32.588Z,2.5
2018-10-03T08:30:32.836Z,3.3
2018-10-03T08:31:33.057Z,3.3
2018-10-03T08:32:32.973Z,3.3
2018-10-03T08:35:01.116Z,0.0
2018-10-03T08:35:33.674Z,1.1
2018-10-03T08:36:33.474Z,1.1
2018-10-03T08:37:32.868Z,1.1
2018-10-03T08:38:33.134Z,6.6
2018-10-03T08:39:33.155Z,6.6
2018-10-03T08:40:33.201Z,3.8
2018-10-03T08:41:33.177Z,3.8
2018-10-03T08:42:33.142Z,3.8
2018-10-03T08:43:33.630Z,0.5
2018-10-03T08:44:33.104Z,0.5
2018-10-03T08:47:45.832Z,1.6
2018-10-03T08:48:46.407Z,1.6
2018-10-03T08:49:46.872Z,1.6
2018-10-03T08:50:45.621Z,3.6
2018-10-03T08:51:46.849Z,3.6
2018-10-03T08:52:47.003Z,3.6
2018-10-03T08:53:46.175Z,3.0
2018-10-03T08:54:46.755Z,3.0
2018-10-03T08:55:46.625Z,3.0
2018-10-03T08:56:47.839Z,3.0
2018-10-03T08:57:46.737Z,3.0
2018-10-03T08:58:45.707Z,4.7
2018-10-03T08:59:45.707Z,4.7
2018-10-03T09:00:46.196Z,5.8
2018-10-03T09:01:46.319Z,5.8
2018-10-03T09:02:46.308Z,5.8
2018-10-03T09:03:46.209Z,6.6
2018-10-03T09:04:46.140Z,6.6
2018-10-03T09:05:46.304Z,3.8
2018-10-03T09:06:46.620Z,3.8
2018-10-03T09:07:47.962Z,3.8
2018-10-03T09:08:48.477Z,1.9
2018-10-03T09:09:46.077Z,1.9
2018-10-03T09:10:45.866Z,4.4
2018-10-03T09:11:46.324Z,4.4
2018-10-03T09:12:46.056Z,4.4
2018-10-03T09:13:45.978Z,1.6
2018-10-03T09:14:46.217Z,1.6
2018-10-03T09:15:46.156Z,1.6
2018-10-03T09:16:46.078Z,0.0
2018-10-03T09:17:46.119Z,0.0
2018-10-03T09:18:46.094Z,1.1
2018-10-03T09:19:46.120Z,1.1
2018-10-03T09:20:45.964Z,1.1
2018-10-03T09:21:46.108Z,22.7
2018-10-03T09:22:46.132Z,22.7
2018-10-03T09:23:46.198Z,5.2
2018-10-03T09:24:48.129Z,5.2
2018-10-03T09:25:45.921Z,5.2
2018-10-03T09:26:47.194Z,1.9
2018-10-03T09:27:46.213Z,1.9
2018-10-03T09:28:45.853Z,5.5
2018-10-03T09:29:46.186Z,5.5
2018-10-03T09:30:45.691Z,5.5
2018-10-03T09:31:46.139Z,4.1
2018-10-03T09:32:46.042Z,4.1
2018-10-03T09:33:45.881Z,4.4
2018-10-03T09:34:46.178Z,4.4
2018-10-03T09:35:46.241Z,4.4
2018-10-03T09:36:46.119Z,4.4
2018-10-03T09:37:45.763Z,4.4
2018-10-03T09:38:45.915Z,2.7
2018-10-03T09:39:46.179Z,2.7
2018-10-03T09:40:46.208Z,2.7
2018-10-03T09:41:48.745Z,6.9
2018-10-03T09:42:46.192Z,6.9
2018-10-03T09:43:46.766Z,6.9
2018-10-03T09:44:47.246Z,2.5
2018-10-03T09:45:45.931Z,2.5
2018-10-03T09:46:45.770Z,9.4
2018-10-03T09:47:46.300Z,9.4
2018-10-03T09:48:45.735Z,9.4
2018-10-03T09:49:46.241Z,5.0
2018-10-03T09:50:45.742Z,5.0
2018-10-03T09:51:45.712Z,1.9
2018-10-03T09:52:45.718Z,1.9
2018-10-03T09:53:46.109Z,1.9
2018-10-03T09:54:48.411Z,7.5
2018-10-03T09:55:45.897Z,7.5
2018-10-03T09:56:46.181Z,12.2
2018-10-03T09:57:45.914Z,12.2
2018-10-03T09:58:46.308Z,12.2
2018-10-03T09:59:45.997Z,8.6
2018-10-03T10:00:46.300Z,8.6
2018-10-03T10:01:46.259Z,8.3
2018-10-03T10:02:46.042Z,8.3
2018-10-03T10:03:48.109Z,8.3
2018-10-03T10:12:55.435Z,13.0
2018-10-03T10:13:07.710Z,13.0
2018-10-03T10:14:06.101Z,36.6
2018-10-03T10:15:05.874Z,7.7
2018-10-03T10:16:05.348Z,7.7
2018-10-03T10:17:05.117Z,7.7
2018-10-03T10:18:05.408Z,7.7
2018-10-03T10:19:05.368Z,7.7
2018-10-03T10:20:04.728Z,7.2
2018-10-03T10:21:04.535Z,7.2
2018-10-03T10:23:17.532Z,36.6
2018-10-03T10:24:17.812Z,36.6
2018-10-03T10:25:17.878Z,10.8
2018-10-03T10:26:17.548Z,10.8
2018-10-03T10:27:17.412Z,9.1
2018-10-03T10:28:17.782Z,9.1
2018-10-03T10:29:17.541Z,9.1
2018-10-03T10:30:17.345Z,9.7
2018-10-03T10:31:17.630Z,9.7
2018-10-03T10:32:18.942Z,5.8
2018-10-03T10:33:17.911Z,5.8
2018-10-03T10:34:18.616Z,5.8
2018-10-03T10:35:22.675Z,5.5
2018-10-03T10:36:26.192Z,5.5
2018-10-03T10:37:21.644Z,11.3
2018-10-03T10:38:19.388Z,11.3
2018-10-03T10:39:17.844Z,11.3
2018-10-03T10:40:17.451Z,9.1
2018-10-03T10:41:27.932Z,9.1
2018-10-03T10:42:18.278Z,9.1
2018-10-03T10:43:17.997Z,9.1
2018-10-03T10:44:17.939Z,9.1
2018-10-03T10:45:17.867Z,13.0
2018-10-03T10:46:17.544Z,13.0
2018-10-03T10:47:17.830Z,13.0
2018-10-03T10:48:17.548Z,44.1
2018-10-03T10:49:17.903Z,44.1
2018-10-03T10:50:18.677Z,7.7
2018-10-03T10:51:18.414Z,7.7
2018-10-03T10:52:17.871Z,7.7
2018-10-03T10:53:17.852Z,6.9
2018-10-03T10:54:17.776Z,6.9
2018-10-03T10:55:17.870Z,5.5
2018-10-03T10:56:17.586Z,5.5
2018-10-03T10:57:17.834Z,5.5
2018-10-03T10:58:17.699Z,5.5
2018-10-03T10:59:17.905Z,5.5
2018-10-03T11:00:17.829Z,11.6
2018-10-03T11:01:17.361Z,11.6
2018-10-03T11:02:17.436Z,11.6
2018-10-03T11:03:17.881Z,11.1
2018-10-03T11:04:17.937Z,11.1
2018-10-03T11:05:17.468Z,12.7
2018-10-03T11:06:17.935Z,12.7
2018-10-03T11:07:17.853Z,12.7
2018-10-03T11:08:17.842Z,11.1
2018-10-03T11:09:17.603Z,11.1
2018-10-03T11:10:17.417Z,7.7
2018-10-03T11:11:17.813Z,7.7
2018-10-03T11:12:17.913Z,7.7
2018-10-03T11:13:17.900Z,10.8
2018-10-03T11:14:17.902Z,10.8
2018-10-03T11:15:17.928Z,7.7
2018-10-03T11:16:17.381Z,7.7
2018-10-03T11:17:17.906Z,7.7
2018-10-03T11:18:17.641Z,9.4
2018-10-03T11:19:18.367Z,9.4
2018-10-03T11:20:17.878Z,9.4
2018-10-03T11:21:17.997Z,4.1
2018-10-03T11:22:17.846Z,4.1
2018-10-03T11:23:17.435Z,7.5
2018-10-03T11:24:18.033Z,7.5
2018-10-03T11:25:17.898Z,7.5
2018-10-03T11:26:17.889Z,4.4
2018-10-03T11:27:17.432Z,4.4
2018-10-03T11:28:17.496Z,7.7
2018-10-03T11:29:17.929Z,7.7
2018-10-03T11:30:18.454Z,7.7
2018-10-03T11:31:17.961Z,10.0
2018-10-03T11:32:18.074Z,10.0
2018-10-03T11:33:18.034Z,9.4
2018-10-03T11:34:17.934Z,9.4
2018-10-03T11:35:17.702Z,9.4
2018-10-03T11:36:18.002Z,9.4
2018-10-03T11:37:17.980Z,9.4
2018-10-03T11:39:18.539Z,9.4
2018-10-03T11:40:17.652Z,9.4
2018-10-03T11:41:18.028Z,8.0
2018-10-03T11:42:17.483Z,8.0
2018-10-03T11:43:17.734Z,6.6
2018-10-03T11:44:17.516Z,6.6
2018-10-03T11:45:17.625Z,6.6
2018-10-03T11:46:17.454Z,11.3
2018-10-03T11:47:18.061Z,11.3
2018-10-03T11:48:18.047Z,11.3
2018-10-03T11:49:17.520Z,10.2
2018-10-03T11:50:17.903Z,10.2
2018-10-03T11:52:19.165Z,13.0
2018-10-03T11:53:17.884Z,13.0
2018-10-03T11:54:20.476Z,8.8
2018-10-03T11:55:18.512Z,8.8
2018-10-03T11:56:18.553Z,10.5
2018-10-03T11:57:19.756Z,10.5
2018-10-03T11:58:17.781Z,10.5
2018-10-03T11:59:17.496Z,8.6
2018-10-03T12:00:17.958Z,8.6
2018-10-03T12:01:17.974Z,13.8
2018-10-03T12:02:17.455Z,13.8
2018-10-03T12:03:24.758Z,13.8
2018-10-03T12:04:18.957Z,36.6
2018-10-03T12:05:20.537Z,36.6
2018-10-03T12:06:18.305Z,6.9
2018-10-03T12:07:17.475Z,6.9
2018-10-03T12:16:28.366Z,6.9
2018-10-03T12:16:38.541Z,6.9
2018-10-03T12:17:38.098Z,5.2
2018-10-03T12:18:39.384Z,5.2
2018-10-03T12:19:38.560Z,5.2
2018-10-03T12:20:38.761Z,5.2
2018-10-03T12:21:38.778Z,6.6
2018-10-03T12:22:38.736Z,6.6
2018-10-03T12:23:38.213Z,6.6
2018-10-03T12:24:38.744Z,5.2
2018-10-03T12:25:38.838Z,5.2
2018-10-03T12:26:38.544Z,4.7
2018-10-03T12:27:38.171Z,4.7
2018-10-03T12:28:38.738Z,4.7
2018-10-03T12:29:40.374Z,6.3
2018-10-03T12:30:38.542Z,6.3
2018-10-03T12:31:38.503Z,6.1
2018-10-03T12:32:39.163Z,6.1
2018-10-03T12:33:39.566Z,6.1
2018-10-03T12:34:38.762Z,26.9
2018-10-03T12:35:38.525Z,26.9
2018-10-03T12:36:38.917Z,13.0
2018-10-03T12:37:39.260Z,13.0
2018-10-03T12:38:38.678Z,13.0
2018-10-03T12:39:39.188Z,8.6
2018-10-03T12:40:38.669Z,8.6
2018-10-03T12:41:38.596Z,8.6
2018-10-03T12:42:39.082Z,10.8
2018-10-03T12:43:38.688Z,10.8
2018-10-03T12:44:38.615Z,50.8
2018-10-03T12:45:39.576Z,50.8
2018-10-03T12:46:38.892Z,50.8
2018-10-03T12:47:38.312Z,7.5
2018-10-03T12:48:39.864Z,7.5
2018-10-03T12:49:56.396Z,9.7
2018-10-03T12:50:39.386Z,9.7
2018-10-03T12:51:39.885Z,9.7
2018-10-03T12:52:38.400Z,6.3
2018-10-03T12:53:40.014Z,6.3
2018-10-03T12:54:38.795Z,7.5
2018-10-03T12:55:38.662Z,7.5
2018-10-03T12:56:38.223Z,7.5
2018-10-03T12:57:38.244Z,4.4
2018-10-03T12:58:38.985Z,4.4
2018-10-03T12:59:38.436Z,4.4
2018-10-03T13:00:38.764Z,4.4
2018-10-03T13:01:39.047Z,4.4
2018-10-03T13:02:38.710Z,8.6
2018-10-03T13:03:39.262Z,8.6
2018-10-03T13:04:38.474Z,4.4
2018-10-03T13:05:39.372Z,4.4
2018-10-03T13:06:38.281Z,4.4
2018-10-03T13:07:38.886Z,10.0
2018-10-03T13:08:38.635Z,10.0
2018-10-03T13:09:38.705Z,10.0
2018-10-03T13:10:39.653Z,6.6
2018-10-03T13:11:38.784Z,6.6
2018-10-03T13:12:39.002Z,8.6
2018-10-03T13:13:38.470Z,8.6
2018-10-03T13:14:38.702Z,8.6
2018-10-03T13:15:38.738Z,7.2
2018-10-03T13:16:38.854Z,7.2
2018-10-03T13:17:39.708Z,5.2
2018-10-03T13:18:38.470Z,5.2
2018-10-03T13:19:38.676Z,5.2
2018-10-03T13:20:40.537Z,6.3
2018-10-03T13:21:40.740Z,6.3
2018-10-03T13:22:38.730Z,8.8
2018-10-03T13:23:39.163Z,8.8
2018-10-03T13:24:38.816Z,8.8
2018-10-03T13:25:38.268Z,9.4
2018-10-03T13:26:39.280Z,9.4
2018-10-03T13:27:39.134Z,21.1
2018-10-03T13:28:38.774Z,21.1
2018-10-03T13:29:38.911Z,21.1
2018-10-03T13:30:39.076Z,11.9
2018-10-03T13:32:08.017Z,11.9
2018-10-03T13:32:38.456Z,8.8
2018-10-03T13:33:38.361Z,8.8
2018-10-03T13:34:38.604Z,8.8
2018-10-03T13:35:38.778Z,5.8
2018-10-03T13:36:38.488Z,5.8
2018-10-03T13:37:38.327Z,5.2
2018-10-03T13:38:38.491Z,5.2
2018-10-03T13:39:38.763Z,5.2
2018-10-03T13:40:38.350Z,5.2
2018-10-03T13:41:38.443Z,5.2
2018-10-03T13:43:51.681Z,2.7
2018-10-03T13:44:51.579Z,2.7
2018-10-03T13:45:51.671Z,5.8
2018-10-03T13:46:51.888Z,5.8
2018-10-03T13:47:51.435Z,4.1
2018-10-03T13:48:51.755Z,4.1
2018-10-03T13:49:51.546Z,4.1
2018-10-03T13:50:51.195Z,3.8
2018-10-03T13:51:52.433Z,3.8
2018-10-03T13:52:51.615Z,3.8
2018-10-03T13:54:01.593Z,4.1
2018-10-03T13:54:51.645Z,4.1
2018-10-03T13:55:51.245Z,7.7
2018-10-03T13:56:51.570Z,7.7
2018-10-03T13:57:52.354Z,7.7
2018-10-03T13:58:51.401Z,6.3
2018-10-03T13:59:52.844Z,6.3
2018-10-03T14:00:51.443Z,5.5
2018-10-03T14:01:51.588Z,5.5
2018-10-03T14:02:51.207Z,5.5
2018-10-03T14:04:51.445Z,2.7
2018-10-03T14:05:51.257Z,1.3
2018-10-03T14:06:51.799Z,1.3
2018-10-03T14:08:51.675Z,3.3
2018-10-03T14:09:51.495Z,3.3
2018-10-03T14:10:52.162Z,50.0
2018-10-03T14:11:51.607Z,50.0
2018-10-03T14:12:52.616Z,50.0
2018-10-03T14:13:51.593Z,5.8
2018-10-03T14:14:51.490Z,5.8
2018-10-03T14:15:51.395Z,5.5
2018-10-03T14:16:51.256Z,5.5
2018-10-03T14:17:52.044Z,5.5
2018-10-03T14:18:51.523Z,7.7
2018-10-03T14:19:51.168Z,7.7
2018-10-03T14:20:51.624Z,7.7
2018-10-03T14:21:51.624Z,7.7
2018-10-03T14:22:51.867Z,7.7
2018-10-03T14:23:51.611Z,2.7
2018-10-03T14:24:51.826Z,2.7
2018-10-03T14:25:51.597Z,2.7
2018-10-03T14:26:52.140Z,4.4
2018-10-03T14:27:52.094Z,4.4
2018-10-03T14:28:51.526Z,1.9
2018-10-03T14:29:51.877Z,1.9
2018-10-03T14:30:51.822Z,1.9
2018-10-03T14:31:52.777Z,2.7
2018-10-03T14:32:51.715Z,2.7
2018-10-03T14:33:51.889Z,1.6
2018-10-03T14:34:51.608Z,1.6
2018-10-03T14:35:51.520Z,1.6
2018-10-03T14:36:51.381Z,5.8
2018-10-03T14:37:51.962Z,5.8
2018-10-03T14:38:51.787Z,4.7
2018-10-03T14:39:51.920Z,4.7
2018-10-03T14:40:51.425Z,4.7
2018-10-03T14:41:52.447Z,4.4
2018-10-03T14:42:51.550Z,4.4
2018-10-03T14:43:51.671Z,4.1
2018-10-03T14:44:52.125Z,4.1
2018-10-03T14:45:51.949Z,4.1
2018-10-03T14:46:51.639Z,1.6
2018-10-03T14:47:51.667Z,1.6
2018-10-03T14:48:51.277Z,2.7
2018-10-03T14:49:51.527Z,2.7
2018-10-03T14:50:51.751Z,2.7
2018-10-03T14:51:52.625Z,3.3
2018-10-03T14:52:52.075Z,3.3
2018-10-03T14:53:51.982Z,3.3
2018-10-03T14:54:51.680Z,3.3
2018-10-03T14:55:51.975Z,3.3
2018-10-03T14:56:51.591Z,5.8
2018-10-03T14:57:52.152Z,5.8
2018-10-03T14:58:51.717Z,5.8
2018-10-03T14:59:52.157Z,8.3
2018-10-03T15:00:51.903Z,8.3
2018-10-03T15:01:52.120Z,8.3
2018-10-03T15:02:51.422Z,8.3
2018-10-03T15:03:51.826Z,8.3
2018-10-03T15:04:51.688Z,6.9
2018-10-03T15:05:51.704Z,6.9
2018-10-03T15:06:51.788Z,7.2
2018-10-03T15:07:52.164Z,7.2
2018-10-03T15:08:52.161Z,7.2
2018-10-03T15:09:53.500Z,9.7
2018-10-03T15:10:52.081Z,9.7
2018-10-03T15:11:51.720Z,7.7
2018-10-03T15:12:52.044Z,7.7
2018-10-03T15:13:51.731Z,7.7
2018-10-03T15:14:51.859Z,7.7